Hlavní strana
METAR-TAF:

METAR-TAF

Letiště :

Rabat, Maroko

zeměpisná šířka: 34-03N, zeměpisná délka: 006-46W, výška: 84 m

Aktuální stav počasí

Zpráva byla vytvořena před 21 minutami, v 04:30 UTC
Západojihozápadní vítr 6 kt
Teplota 20°C
Vlhkost vzduchu 94%
Tlak 1015 hPa
Viditelnost: 6000 m

METAR: GMME 260430Z 25006KT 6000 NSC 20/19 Q1015 NOSIG

Čas: 05:51 (04:51 UTC)

Předpověď počasí

Zpráva byla vytvořena před 5 hodinami a 51 minutami, v 23:00 UTC
Předpověď platná od 26 v 00 UTC do 27 v 06 UTC
Jihozápadní vítr 7 kt
Viditelnost: 8000 m
Pravděpodobnost 30% :
Dočasný
od 26 v 05 UTC do 26 v 08 UTC
vítr z různých směrů 2 kt
Viditelnost: 4000 m
kouřmo
Změna
od 26 v 08 UTC do 26 v 12 UTC
Západní vítr 8 kt
Viditelnost: 7000 m
Dočasný
od 26 v 12 UTC do 26 v 18 UTC
Severozápadní vítr 10 kt
Viditelnost 10 km a více
Žádná oblačnost pod 1500 m, nevyskytují se cumulonimby.

TAF: GMME 252300Z 2600/2706 22007KT 8000 NSC PROB30 TEMPO 2605/2608 VRB02KT 4000 BR BECMG 2608/2612 26008KT 7000 NSW NSC TEMPO 2612/2618 32010KT CAVOK

Stav a předpovědi počasí z více než 4 000 letišť (zprávy METAR a TAF).

Červené a žluté tečky na mapě představují dostupné meteorologické stanice.

Když kurzor umístíte na tečku, zobrazí se název stanice.

Pak kliknutím zobrazíte stav a předpověď počasí.

Chcete-li změnit mapu, kliknutím na zelené tlačítko se znaménkem +mapu přiblížíte, kliknutím na zelené tlačítko se znaménkem – mapu oddálíte a kliknutím na zelené šipky přejdete na sousední mapy.


METAR-TAF: